sensor_id;sensor_type;location;lat;lon;timestamp;temperature;humidity
9760;DHT22;4919;48.792;9.202;2023-03-03T00:02:16;0.00;1.00
9760;DHT22;4919;48.792;9.202;2023-03-03T00:05:01;-0.10;1.00
9760;DHT22;4919;48.792;9.202;2023-03-03T00:07:46;0.00;1.00
9760;DHT22;4919;48.792;9.202;2023-03-03T00:10:31;-0.10;1.00
9760;DHT22;4919;48.792;9.202;2023-03-03T00:13:22;-0.10;1.00
9760;DHT22;4919;48.792;9.202;2023-03-03T00:16:24;0.00;1.00
9760;DHT22;4919;48.792;9.202;2023-03-03T00:19:16;-0.10;1.00
9760;DHT22;4919;48.792;9.202;2023-03-03T00:22:01;-0.10;1.00
9760;DHT22;4919;48.792;9.202;2023-03-03T00:24:46;-0.10;1.00
9760;DHT22;4919;48.792;9.202;2023-03-03T00:27:34;0.00;1.00
9760;DHT22;4919;48.792;9.202;2023-03-03T00:30:23;0.00;1.00
9760;DHT22;4919;48.792;9.202;2023-03-03T00:33:23;-0.10;1.00
9760;DHT22;4919;48.792;9.202;2023-03-03T00:36:27;-0.10;1.00
9760;DHT22;4919;48.792;9.202;2023-03-03T00:42:15;-0.10;1.00
9760;DHT22;4919;48.792;9.202;2023-03-03T00:45:00;-0.10;1.00
9760;DHT22;4919;48.792;9.202;2023-03-03T00:47:44;0.00;1.00
9760;DHT22;4919;48.792;9.202;2023-03-03T00:50:32;0.00;1.00
9760;DHT22;4919;48.792;9.202;2023-03-03T00:53:19;-0.20;1.00
9760;DHT22;4919;48.792;9.202;2023-03-03T00:56:03;-0.10;1.00
9760;DHT22;4919;48.792;9.202;2023-03-03T00:58:49;-0.20;1.00
9760;DHT22;4919;48.792;9.202;2023-03-03T01:01:34;-0.20;1.00
9760;DHT22;4919;48.792;9.202;2023-03-03T01:04:19;-0.10;1.00
9760;DHT22;4919;48.792;9.202;2023-03-03T01:07:04;-0.10;1.00
9760;DHT22;4919;48.792;9.202;2023-03-03T01:09:49;-0.10;1.00
9760;DHT22;4919;48.792;9.202;2023-03-03T01:12:34;-0.20;1.00
9760;DHT22;4919;48.792;9.202;2023-03-03T01:15:18;-0.10;1.00
9760;DHT22;4919;48.792;9.202;2023-03-03T01:18:04;-0.10;1.00
9760;DHT22;4919;48.792;9.202;2023-03-03T01:20:50;-0.20;1.00
9760;DHT22;4919;48.792;9.202;2023-03-03T01:23:34;-0.20;1.00
9760;DHT22;4919;48.792;9.202;2023-03-03T01:26:19;-0.20;1.00
9760;DHT22;4919;48.792;9.202;2023-03-03T01:29:04;-0.20;1.00
9760;DHT22;4919;48.792;9.202;2023-03-03T01:31:49;-0.20;1.00
9760;DHT22;4919;48.792;9.202;2023-03-03T01:34:34;-0.10;1.00
9760;DHT22;4919;48.792;9.202;2023-03-03T01:37:19;-0.10;1.00
9760;DHT22;4919;48.792;9.202;2023-03-03T01:40:30;-0.20;1.00
9760;DHT22;4919;48.792;9.202;2023-03-03T01:43:14;-0.30;1.00
9760;DHT22;4919;48.792;9.202;2023-03-03T01:48:44;-0.20;1.00
9760;DHT22;4919;48.792;9.202;2023-03-03T01:51:37;-0.30;1.00
9760;DHT22;4919;48.792;9.202;2023-03-03T01:54:29;-0.30;1.00
9760;DHT22;4919;48.792;9.202;2023-03-03T01:57:22;-0.30;1.00
9760;DHT22;4919;48.792;9.202;2023-03-03T02:00:09;-0.40;1.00
9760;DHT22;4919;48.792;9.202;2023-03-03T02:02:55;-0.30;1.00
9760;DHT22;4919;48.792;9.202;2023-03-03T02:05:40;-0.40;1.00
9760;DHT22;4919;48.792;9.202;2023-03-03T02:08:41;-0.30;1.00
9760;DHT22;4919;48.792;9.202;2023-03-03T02:11:31;-0.40;1.00
9760;DHT22;4919;48.792;9.202;2023-03-03T02:14:18;-0.30;1.00
9760;DHT22;4919;48.792;9.202;2023-03-03T02:17:03;-0.30;1.00
9760;DHT22;4919;48.792;9.202;2023-03-03T02:20:08;-0.30;1.00
9760;DHT22;4919;48.792;9.202;2023-03-03T02:28:34;-0.30;99.90
9760;DHT22;4919;48.792;9.202;2023-03-03T02:31:22;-0.40;99.90
9760;DHT22;4919;48.792;9.202;2023-03-03T02:34:07;-0.40;1.00
9760;DHT22;4919;48.792;9.202;2023-03-03T02:36:52;-0.40;1.00
9760;DHT22;4919;48.792;9.202;2023-03-03T02:39:37;-0.40;1.00
9760;DHT22;4919;48.792;9.202;2023-03-03T02:42:26;-0.50;1.00
9760;DHT22;4919;48.792;9.202;2023-03-03T02:45:13;-0.50;1.00
9760;DHT22;4919;48.792;9.202;2023-03-03T02:47:57;-0.50;1.00
9760;DHT22;4919;48.792;9.202;2023-03-03T02:50:42;-0.60;1.00
9760;DHT22;4919;48.792;9.202;2023-03-03T02:53:27;-0.60;1.00
9760;DHT22;4919;48.792;9.202;2023-03-03T02:56:12;-0.70;1.00
9760;DHT22;4919;48.792;9.202;2023-03-03T02:58:57;-0.70;1.00
9760;DHT22;4919;48.792;9.202;2023-03-03T03:01:42;-0.70;1.00
9760;DHT22;4919;48.792;9.202;2023-03-03T03:04:27;-0.70;1.00
9760;DHT22;4919;48.792;9.202;2023-03-03T03:07:12;-0.80;1.00
9760;DHT22;4919;48.792;9.202;2023-03-03T03:09:57;-0.80;1.00
9760;DHT22;4919;48.792;9.202;2023-03-03T03:12:42;-0.90;1.00
9760;DHT22;4919;48.792;9.202;2023-03-03T03:15:26;-0.90;1.00
9760;DHT22;4919;48.792;9.202;2023-03-03T03:18:12;-0.80;1.00
9760;DHT22;4919;48.792;9.202;2023-03-03T03:21:13;-0.90;1.00
9760;DHT22;4919;48.792;9.202;2023-03-03T03:23:58;-0.90;1.00
9760;DHT22;4919;48.792;9.202;2023-03-03T03:26:43;-0.90;1.00
9760;DHT22;4919;48.792;9.202;2023-03-03T03:29:28;-0.90;1.00
9760;DHT22;4919;48.792;9.202;2023-03-03T03:32:13;-0.90;1.00
9760;DHT22;4919;48.792;9.202;2023-03-03T03:34:57;-0.90;1.00
9760;DHT22;4919;48.792;9.202;2023-03-03T03:37:43;-0.90;1.00
9760;DHT22;4919;48.792;9.202;2023-03-03T03:40:28;-0.90;1.00
9760;DHT22;4919;48.792;9.202;2023-03-03T03:43:13;-0.80;1.00
9760;DHT22;4919;48.792;9.202;2023-03-03T03:45:58;-0.70;1.00
9760;DHT22;4919;48.792;9.202;2023-03-03T03:48:43;-0.80;1.00
9760;DHT22;4919;48.792;9.202;2023-03-03T03:51:28;-0.80;1.00
9760;DHT22;4919;48.792;9.202;2023-03-03T03:54:12;-0.80;1.00
9760;DHT22;4919;48.792;9.202;2023-03-03T03:56:57;-0.80;1.00
9760;DHT22;4919;48.792;9.202;2023-03-03T03:59:42;-0.80;1.00
9760;DHT22;4919;48.792;9.202;2023-03-03T04:02:27;-0.80;1.00
9760;DHT22;4919;48.792;9.202;2023-03-03T04:05:12;-0.90;1.00
9760;DHT22;4919;48.792;9.202;2023-03-03T04:07:57;-0.80;1.00
9760;DHT22;4919;48.792;9.202;2023-03-03T04:10:41;-0.90;1.00
9760;DHT22;4919;48.792;9.202;2023-03-03T04:13:26;-0.80;1.00
9760;DHT22;4919;48.792;9.202;2023-03-03T04:16:11;-0.90;1.00
9760;DHT22;4919;48.792;9.202;2023-03-03T04:18:56;-0.90;1.00
9760;DHT22;4919;48.792;9.202;2023-03-03T04:21:41;-0.80;1.00
9760;DHT22;4919;48.792;9.202;2023-03-03T04:24:26;-0.90;1.00
9760;DHT22;4919;48.792;9.202;2023-03-03T04:27:11;-0.80;1.00
9760;DHT22;4919;48.792;9.202;2023-03-03T04:29:56;-0.80;1.00
9760;DHT22;4919;48.792;9.202;2023-03-03T04:32:41;-0.80;1.00
9760;DHT22;4919;48.792;9.202;2023-03-03T04:35:25;-0.80;1.00
9760;DHT22;4919;48.792;9.202;2023-03-03T04:38:10;-0.90;1.00
9760;DHT22;4919;48.792;9.202;2023-03-03T04:40:56;-0.90;1.00
9760;DHT22;4919;48.792;9.202;2023-03-03T04:43:41;-0.90;1.00
9760;DHT22;4919;48.792;9.202;2023-03-03T04:46:26;-1.00;1.00
9760;DHT22;4919;48.792;9.202;2023-03-03T04:49:10;-1.00;1.00
9760;DHT22;4919;48.792;9.202;2023-03-03T04:51:56;-0.90;1.00
9760;DHT22;4919;48.792;9.202;2023-03-03T04:54:41;-1.10;1.00
9760;DHT22;4919;48.792;9.202;2023-03-03T04:57:26;-1.00;1.00
9760;DHT22;4919;48.792;9.202;2023-03-03T05:00:12;-1.00;1.00
9760;DHT22;4919;48.792;9.202;2023-03-03T05:02:57;-1.10;1.00
9760;DHT22;4919;48.792;9.202;2023-03-03T05:05:42;-1.10;1.00
9760;DHT22;4919;48.792;9.202;2023-03-03T05:08:27;-1.20;1.00
9760;DHT22;4919;48.792;9.202;2023-03-03T05:11:12;-1.30;1.00
9760;DHT22;4919;48.792;9.202;2023-03-03T05:13:56;-1.20;1.00
9760;DHT22;4919;48.792;9.202;2023-03-03T05:16:41;-1.10;1.00
9760;DHT22;4919;48.792;9.202;2023-03-03T05:19:26;-1.10;1.00
9760;DHT22;4919;48.792;9.202;2023-03-03T05:22:11;-1.10;1.00
9760;DHT22;4919;48.792;9.202;2023-03-03T05:24:56;-1.20;1.00
9760;DHT22;4919;48.792;9.202;2023-03-03T05:27:40;-1.20;1.00
9760;DHT22;4919;48.792;9.202;2023-03-03T05:30:25;-1.20;1.00
9760;DHT22;4919;48.792;9.202;2023-03-03T05:33:15;-1.20;1.00
9760;DHT22;4919;48.792;9.202;2023-03-03T05:35:59;-1.10;1.00
9760;DHT22;4919;48.792;9.202;2023-03-03T05:38:44;-1.20;1.00
9760;DHT22;4919;48.792;9.202;2023-03-03T05:41:29;-1.20;1.00
9760;DHT22;4919;48.792;9.202;2023-03-03T05:44:14;-1.30;1.00
9760;DHT22;4919;48.792;9.202;2023-03-03T05:46:59;-1.30;1.00
9760;DHT22;4919;48.792;9.202;2023-03-03T05:49:44;-1.30;1.00
9760;DHT22;4919;48.792;9.202;2023-03-03T05:52:28;-1.20;1.00
9760;DHT22;4919;48.792;9.202;2023-03-03T05:55:13;-1.20;1.00
9760;DHT22;4919;48.792;9.202;2023-03-03T05:57:58;-1.20;1.00
9760;DHT22;4919;48.792;9.202;2023-03-03T06:00:43;-1.10;1.00
9760;DHT22;4919;48.792;9.202;2023-03-03T06:03:28;-1.10;1.00
9760;DHT22;4919;48.792;9.202;2023-03-03T06:06:13;-1.10;1.00
9760;DHT22;4919;48.792;9.202;2023-03-03T06:08:58;-1.00;1.00
9760;DHT22;4919;48.792;9.202;2023-03-03T06:11:43;-1.00;1.00
9760;DHT22;4919;48.792;9.202;2023-03-03T06:14:28;-1.00;1.00
9760;DHT22;4919;48.792;9.202;2023-03-03T06:17:13;-1.00;1.00
9760;DHT22;4919;48.792;9.202;2023-03-03T06:19:58;-1.00;1.00
9760;DHT22;4919;48.792;9.202;2023-03-03T06:22:42;-0.90;1.00
9760;DHT22;4919;48.792;9.202;2023-03-03T06:25:27;-1.00;1.00
9760;DHT22;4919;48.792;9.202;2023-03-03T06:28:13;-1.00;1.00
9760;DHT22;4919;48.792;9.202;2023-03-03T06:30:58;-0.90;1.00
9760;DHT22;4919;48.792;9.202;2023-03-03T06:33:43;-1.00;1.00
9760;DHT22;4919;48.792;9.202;2023-03-03T06:36:28;-1.00;1.00
9760;DHT22;4919;48.792;9.202;2023-03-03T06:39:13;-0.90;1.00
9760;DHT22;4919;48.792;9.202;2023-03-03T06:41:57;-1.00;1.00
9760;DHT22;4919;48.792;9.202;2023-03-03T06:44:42;-1.00;1.00
9760;DHT22;4919;48.792;9.202;2023-03-03T06:47:27;-0.90;1.00
9760;DHT22;4919;48.792;9.202;2023-03-03T06:50:12;-0.90;1.00
9760;DHT22;4919;48.792;9.202;2023-03-03T06:53:12;-0.80;1.00
9760;DHT22;4919;48.792;9.202;2023-03-03T06:55:57;-0.80;1.00
9760;DHT22;4919;48.792;9.202;2023-03-03T06:58:42;-1.00;1.00
9760;DHT22;4919;48.792;9.202;2023-03-03T07:01:30;-0.90;1.00
9760;DHT22;4919;48.792;9.202;2023-03-03T07:04:29;-1.00;1.00
9760;DHT22;4919;48.792;9.202;2023-03-03T07:07:21;-0.90;1.00
9760;DHT22;4919;48.792;9.202;2023-03-03T07:10:22;-0.80;1.00
9760;DHT22;4919;48.792;9.202;2023-03-03T07:13:20;-0.80;1.00
9760;DHT22;4919;48.792;9.202;2023-03-03T07:16:11;-0.70;1.00
9760;DHT22;4919;48.792;9.202;2023-03-03T07:18:58;-0.90;1.00
9760;DHT22;4919;48.792;9.202;2023-03-03T07:21:43;-0.80;1.00
9760;DHT22;4919;48.792;9.202;2023-03-03T07:24:29;-0.80;1.00
9760;DHT22;4919;48.792;9.202;2023-03-03T07:27:26;-0.70;1.00
9760;DHT22;4919;48.792;9.202;2023-03-03T07:30:20;-0.70;1.00
9760;DHT22;4919;48.792;9.202;2023-03-03T07:33:26;-0.70;1.00
9760;DHT22;4919;48.792;9.202;2023-03-03T07:36:25;-0.80;1.00
9760;DHT22;4919;48.792;9.202;2023-03-03T07:39:33;-0.70;1.00
9760;DHT22;4919;48.792;9.202;2023-03-03T07:45:30;-0.70;1.00
9760;DHT22;4919;48.792;9.202;2023-03-03T07:48:29;-0.70;1.00
9760;DHT22;4919;48.792;9.202;2023-03-03T07:51:37;-0.70;1.00
9760;DHT22;4919;48.792;9.202;2023-03-03T07:54:37;-0.70;1.00
9760;DHT22;4919;48.792;9.202;2023-03-03T07:57:25;-0.60;1.00
9760;DHT22;4919;48.792;9.202;2023-03-03T08:03:28;-0.60;1.00
9760;DHT22;4919;48.792;9.202;2023-03-03T08:06:34;-0.50;1.00
9760;DHT22;4919;48.792;9.202;2023-03-03T08:09:37;-0.50;1.00
9760;DHT22;4919;48.792;9.202;2023-03-03T08:12:37;-0.50;1.00
9760;DHT22;4919;48.792;9.202;2023-03-03T08:15:24;-0.60;1.00
9760;DHT22;4919;48.792;9.202;2023-03-03T08:18:24;-0.60;1.00
9760;DHT22;4919;48.792;9.202;2023-03-03T08:23:59;-0.60;1.00
9760;DHT22;4919;48.792;9.202;2023-03-03T08:26:44;-0.50;1.00
9760;DHT22;4919;48.792;9.202;2023-03-03T08:29:28;-0.50;1.00
9760;DHT22;4919;48.792;9.202;2023-03-03T08:32:13;-0.50;1.00
9760;DHT22;4919;48.792;9.202;2023-03-03T08:34:58;-0.40;1.00
9760;DHT22;4919;48.792;9.202;2023-03-03T08:37:43;-0.50;1.00
9760;DHT22;4919;48.792;9.202;2023-03-03T08:40:28;-0.40;1.00
9760;DHT22;4919;48.792;9.202;2023-03-03T08:43:14;-0.30;1.00
9760;DHT22;4919;48.792;9.202;2023-03-03T08:46:00;-0.40;1.00
9760;DHT22;4919;48.792;9.202;2023-03-03T08:48:45;-0.30;1.00
9760;DHT22;4919;48.792;9.202;2023-03-03T08:51:30;-0.20;1.00
9760;DHT22;4919;48.792;9.202;2023-03-03T08:54:14;-0.10;1.00
9760;DHT22;4919;48.792;9.202;2023-03-03T08:56:59;-0.10;1.00
9760;DHT22;4919;48.792;9.202;2023-03-03T08:59:44;-0.10;1.00
9760;DHT22;4919;48.792;9.202;2023-03-03T09:02:29;0.10;1.00
9760;DHT22;4919;48.792;9.202;2023-03-03T09:05:14;0.10;1.00
9760;DHT22;4919;48.792;9.202;2023-03-03T09:07:59;-0.10;1.00
9760;DHT22;4919;48.792;9.202;2023-03-03T09:10:44;0.00;1.00
9760;DHT22;4919;48.792;9.202;2023-03-03T09:13:30;-0.10;1.00
9760;DHT22;4919;48.792;9.202;2023-03-03T09:16:15;0.00;1.00
9760;DHT22;4919;48.792;9.202;2023-03-03T09:19:28;-0.10;1.00
9760;DHT22;4919;48.792;9.202;2023-03-03T09:22:19;0.00;1.00
9760;DHT22;4919;48.792;9.202;2023-03-03T09:25:26;0.00;1.00
9760;DHT22;4919;48.792;9.202;2023-03-03T09:28:32;0.00;1.00
9760;DHT22;4919;48.792;9.202;2023-03-03T09:31:35;0.20;1.00
9760;DHT22;4919;48.792;9.202;2023-03-03T09:34:37;0.20;1.00
9760;DHT22;4919;48.792;9.202;2023-03-03T09:37:35;0.10;1.00
9760;DHT22;4919;48.792;9.202;2023-03-03T10:10:50;0.80;1.00
9760;DHT22;4919;48.792;9.202;2023-03-03T10:17:05;0.90;1.00
9760;DHT22;4919;48.792;9.202;2023-03-03T10:20:11;1.00;1.00
9760;DHT22;4919;48.792;9.202;2023-03-03T10:44:55;1.50;99.90
9760;DHT22;4919;48.792;9.202;2023-03-03T10:57:03;1.20;99.90
9760;DHT22;4919;48.792;9.202;2023-03-03T11:05:58;1.70;99.90
9760;DHT22;4919;48.792;9.202;2023-03-03T11:08:58;1.80;99.90
9760;DHT22;4919;48.792;9.202;2023-03-03T11:18:30;1.60;99.90
9760;DHT22;4919;48.792;9.202;2023-03-03T11:21:22;1.70;99.90
9760;DHT22;4919;48.792;9.202;2023-03-03T11:36:33;1.90;99.90
9760;DHT22;4919;48.792;9.202;2023-03-03T11:39:22;2.00;99.90
9760;DHT22;4919;48.792;9.202;2023-03-03T11:42:25;1.90;99.90
9760;DHT22;4919;48.792;9.202;2023-03-03T11:45:44;1.90;99.90
9760;DHT22;4919;48.792;9.202;2023-03-03T11:51:48;1.90;99.90
9760;DHT22;4919;48.792;9.202;2023-03-03T11:57:39;2.10;99.90
9760;DHT22;4919;48.792;9.202;2023-03-03T12:16:06;2.20;99.90
9760;DHT22;4919;48.792;9.202;2023-03-03T12:22:07;2.50;99.90
9760;DHT22;4919;48.792;9.202;2023-03-03T12:42:28;2.60;99.90
9760;DHT22;4919;48.792;9.202;2023-03-03T12:45:27;2.70;99.90
9760;DHT22;4919;48.792;9.202;2023-03-03T12:48:24;2.80;99.90
9760;DHT22;4919;48.792;9.202;2023-03-03T13:00:23;2.70;99.90
9760;DHT22;4919;48.792;9.202;2023-03-03T13:03:34;2.60;99.90
9760;DHT22;4919;48.792;9.202;2023-03-03T13:06:27;2.70;99.90
9760;DHT22;4919;48.792;9.202;2023-03-03T13:15:47;2.80;99.90
9760;DHT22;4919;48.792;9.202;2023-03-03T13:21:48;2.90;99.90
9760;DHT22;4919;48.792;9.202;2023-03-03T13:24:57;2.90;99.90
9760;DHT22;4919;48.792;9.202;2023-03-03T13:27:46;2.90;99.90
9760;DHT22;4919;48.792;9.202;2023-03-03T13:30:34;3.00;99.90
9760;DHT22;4919;48.792;9.202;2023-03-03T13:33:25;3.00;99.90
9760;DHT22;4919;48.792;9.202;2023-03-03T13:36:13;3.00;99.90
9760;DHT22;4919;48.792;9.202;2023-03-03T13:39:21;3.10;99.90
9760;DHT22;4919;48.792;9.202;2023-03-03T13:42:27;3.20;99.90
9760;DHT22;4919;48.792;9.202;2023-03-03T13:48:35;3.00;99.90
9760;DHT22;4919;48.792;9.202;2023-03-03T14:01:00;3.20;99.90
9760;DHT22;4919;48.792;9.202;2023-03-03T14:10:31;3.30;99.90
9760;DHT22;4919;48.792;9.202;2023-03-03T14:13:48;3.40;99.90
9760;DHT22;4919;48.792;9.202;2023-03-03T14:16:51;3.60;99.90
9760;DHT22;4919;48.792;9.202;2023-03-03T14:19:45;3.50;99.90
9760;DHT22;4919;48.792;9.202;2023-03-03T14:22:51;3.50;99.90
9760;DHT22;4919;48.792;9.202;2023-03-03T14:26:12;3.50;99.90
9760;DHT22;4919;48.792;9.202;2023-03-03T14:32:24;3.30;99.90
9760;DHT22;4919;48.792;9.202;2023-03-03T14:35:20;3.30;99.90
9760;DHT22;4919;48.792;9.202;2023-03-03T14:41:19;3.30;99.90
9760;DHT22;4919;48.792;9.202;2023-03-03T14:44:29;3.30;99.90
9760;DHT22;4919;48.792;9.202;2023-03-03T14:47:27;3.40;99.90
9760;DHT22;4919;48.792;9.202;2023-03-03T14:50:34;3.40;99.90
9760;DHT22;4919;48.792;9.202;2023-03-03T14:53:20;3.40;99.90
9760;DHT22;4919;48.792;9.202;2023-03-03T14:59:22;3.70;99.90
9760;DHT22;4919;48.792;9.202;2023-03-03T15:05:25;3.80;99.90
9760;DHT22;4919;48.792;9.202;2023-03-03T15:08:13;3.70;99.90
9760;DHT22;4919;48.792;9.202;2023-03-03T15:11:26;3.70;99.90
9760;DHT22;4919;48.792;9.202;2023-03-03T15:14:14;3.70;99.90
9760;DHT22;4919;48.792;9.202;2023-03-03T15:23:40;3.60;99.90
9760;DHT22;4919;48.792;9.202;2023-03-03T15:26:44;3.80;99.90
9760;DHT22;4919;48.792;9.202;2023-03-03T15:29:38;3.70;99.90
9760;DHT22;4919;48.792;9.202;2023-03-03T15:32:36;3.80;99.90
9760;DHT22;4919;48.792;9.202;2023-03-03T15:35:30;3.90;99.90
9760;DHT22;4919;48.792;9.202;2023-03-03T15:44:21;3.90;99.90
9760;DHT22;4919;48.792;9.202;2023-03-03T15:56:57;3.80;99.90
9760;DHT22;4919;48.792;9.202;2023-03-03T16:00:02;3.90;99.90
9760;DHT22;4919;48.792;9.202;2023-03-03T16:02:55;3.90;99.90
9760;DHT22;4919;48.792;9.202;2023-03-03T16:12:25;3.80;99.90
9760;DHT22;4919;48.792;9.202;2023-03-03T16:21:22;3.80;99.90
9760;DHT22;4919;48.792;9.202;2023-03-03T16:27:38;3.80;99.90
9760;DHT22;4919;48.792;9.202;2023-03-03T16:30:32;3.80;99.90
9760;DHT22;4919;48.792;9.202;2023-03-03T16:36:37;3.80;99.90
9760;DHT22;4919;48.792;9.202;2023-03-03T16:40:08;3.80;99.90
9760;DHT22;4919;48.792;9.202;2023-03-03T16:43:20;3.70;99.90
9760;DHT22;4919;48.792;9.202;2023-03-03T16:46:32;3.70;99.90
9760;DHT22;4919;48.792;9.202;2023-03-03T16:49:35;3.60;99.90
9760;DHT22;4919;48.792;9.202;2023-03-03T16:52:32;3.60;99.90
9760;DHT22;4919;48.792;9.202;2023-03-03T16:55:28;3.60;99.90
9760;DHT22;4919;48.792;9.202;2023-03-03T17:01:34;3.50;99.90
9760;DHT22;4919;48.792;9.202;2023-03-03T17:07:50;3.40;99.90
9760;DHT22;4919;48.792;9.202;2023-03-03T17:20:36;3.20;99.90
9760;DHT22;4919;48.792;9.202;2023-03-03T17:23:53;3.20;99.90
9760;DHT22;4919;48.792;9.202;2023-03-03T17:42:10;3.00;99.90
9760;DHT22;4919;48.792;9.202;2023-03-03T17:44:59;2.90;99.90
9760;DHT22;4919;48.792;9.202;2023-03-03T18:00:21;3.00;99.90
9760;DHT22;4919;48.792;9.202;2023-03-03T18:16:35;3.00;99.90
9760;DHT22;4919;48.792;9.202;2023-03-03T18:26:04;3.00;99.90
9760;DHT22;4919;48.792;9.202;2023-03-03T18:28:23;3.00;99.90
9760;DHT22;4919;48.792;9.202;2023-03-03T18:31:43;3.00;99.90
9760;DHT22;4919;48.792;9.202;2023-03-03T18:34:39;3.00;99.90
9760;DHT22;4919;48.792;9.202;2023-03-03T18:40:32;3.00;99.90
9760;DHT22;4919;48.792;9.202;2023-03-03T18:49:11;3.00;99.90
9760;DHT22;4919;48.792;9.202;2023-03-03T18:52:16;3.00;99.90
9760;DHT22;4919;48.792;9.202;2023-03-03T19:06:54;2.90;99.90
9760;DHT22;4919;48.792;9.202;2023-03-03T19:09:52;2.90;99.90
9760;DHT22;4919;48.792;9.202;2023-03-03T19:12:43;2.90;99.90
9760;DHT22;4919;48.792;9.202;2023-03-03T19:18:18;2.90;99.90
9760;DHT22;4919;48.792;9.202;2023-03-03T19:21:18;2.90;99.90
9760;DHT22;4919;48.792;9.202;2023-03-03T19:30:00;3.00;99.90
9760;DHT22;4919;48.792;9.202;2023-03-03T19:48:04;3.00;99.90
9760;DHT22;4919;48.792;9.202;2023-03-03T19:56:53;3.10;99.90
9760;DHT22;4919;48.792;9.202;2023-03-03T20:00:16;3.10;99.90
9760;DHT22;4919;48.792;9.202;2023-03-03T20:09:39;3.20;99.90
9760;DHT22;4919;48.792;9.202;2023-03-03T20:21:34;3.20;99.90
9760;DHT22;4919;48.792;9.202;2023-03-03T20:27:16;3.20;99.90
9760;DHT22;4919;48.792;9.202;2023-03-03T20:36:32;3.20;99.90
9760;DHT22;4919;48.792;9.202;2023-03-03T20:39:32;3.20;99.90
9760;DHT22;4919;48.792;9.202;2023-03-03T20:54:03;3.20;99.90
9760;DHT22;4919;48.792;9.202;2023-03-03T20:56:53;3.20;99.90
9760;DHT22;4919;48.792;9.202;2023-03-03T20:59:52;3.20;99.90
9760;DHT22;4919;48.792;9.202;2023-03-03T21:05:31;3.20;99.90
9760;DHT22;4919;48.792;9.202;2023-03-03T21:08:16;3.30;99.90
9760;DHT22;4919;48.792;9.202;2023-03-03T21:11:01;3.30;99.90
9760;DHT22;4919;48.792;9.202;2023-03-03T21:13:47;3.30;99.90
9760;DHT22;4919;48.792;9.202;2023-03-03T21:16:32;3.30;99.90
9760;DHT22;4919;48.792;9.202;2023-03-03T21:19:47;3.30;99.90
9760;DHT22;4919;48.792;9.202;2023-03-03T21:22:32;3.30;99.90
9760;DHT22;4919;48.792;9.202;2023-03-03T21:31:14;3.30;99.90
9760;DHT22;4919;48.792;9.202;2023-03-03T21:33:59;3.30;99.90
9760;DHT22;4919;48.792;9.202;2023-03-03T21:36:46;3.30;99.90
9760;DHT22;4919;48.792;9.202;2023-03-03T21:39:34;3.30;99.90
9760;DHT22;4919;48.792;9.202;2023-03-03T21:42:38;3.30;99.90
9760;DHT22;4919;48.792;9.202;2023-03-03T21:45:24;3.30;99.90
9760;DHT22;4919;48.792;9.202;2023-03-03T21:48:09;3.30;99.90
9760;DHT22;4919;48.792;9.202;2023-03-03T21:50:54;3.30;99.90
9760;DHT22;4919;48.792;9.202;2023-03-03T21:53:40;3.30;98.90
9760;DHT22;4919;48.792;9.202;2023-03-03T21:56:25;3.30;99.90
9760;DHT22;4919;48.792;9.202;2023-03-03T21:59:10;3.30;99.90
9760;DHT22;4919;48.792;9.202;2023-03-03T22:01:55;3.20;99.90
9760;DHT22;4919;48.792;9.202;2023-03-03T22:04:40;3.20;99.90
9760;DHT22;4919;48.792;9.202;2023-03-03T22:07:25;3.10;99.90
9760;DHT22;4919;48.792;9.202;2023-03-03T22:10:10;3.00;99.90
9760;DHT22;4919;48.792;9.202;2023-03-03T22:12:54;2.90;99.90
9760;DHT22;4919;48.792;9.202;2023-03-03T22:15:39;2.90;99.90
9760;DHT22;4919;48.792;9.202;2023-03-03T22:18:24;2.90;99.90
9760;DHT22;4919;48.792;9.202;2023-03-03T22:21:09;2.90;99.90
9760;DHT22;4919;48.792;9.202;2023-03-03T22:23:54;2.90;99.90
9760;DHT22;4919;48.792;9.202;2023-03-03T22:26:39;2.90;99.90
9760;DHT22;4919;48.792;9.202;2023-03-03T22:29:24;2.90;99.90
9760;DHT22;4919;48.792;9.202;2023-03-03T22:32:08;2.90;99.90
9760;DHT22;4919;48.792;9.202;2023-03-03T22:34:54;2.90;99.90
9760;DHT22;4919;48.792;9.202;2023-03-03T22:37:38;2.90;99.90
9760;DHT22;4919;48.792;9.202;2023-03-03T22:40:23;2.90;99.90
9760;DHT22;4919;48.792;9.202;2023-03-03T22:43:08;2.90;99.90
9760;DHT22;4919;48.792;9.202;2023-03-03T22:45:53;2.90;99.90
9760;DHT22;4919;48.792;9.202;2023-03-03T22:48:39;2.90;99.90
9760;DHT22;4919;48.792;9.202;2023-03-03T22:51:23;2.80;99.90
9760;DHT22;4919;48.792;9.202;2023-03-03T22:54:08;2.80;99.90
9760;DHT22;4919;48.792;9.202;2023-03-03T22:56:53;2.80;99.90
9760;DHT22;4919;48.792;9.202;2023-03-03T22:59:38;2.80;99.90
9760;DHT22;4919;48.792;9.202;2023-03-03T23:02:23;2.80;99.90
9760;DHT22;4919;48.792;9.202;2023-03-03T23:05:08;2.80;99.90
9760;DHT22;4919;48.792;9.202;2023-03-03T23:07:53;2.70;99.90
9760;DHT22;4919;48.792;9.202;2023-03-03T23:10:38;2.80;99.90
9760;DHT22;4919;48.792;9.202;2023-03-03T23:13:23;2.80;99.90
9760;DHT22;4919;48.792;9.202;2023-03-03T23:16:07;2.80;99.90
9760;DHT22;4919;48.792;9.202;2023-03-03T23:18:52;2.80;99.90
9760;DHT22;4919;48.792;9.202;2023-03-03T23:21:37;2.80;99.90
9760;DHT22;4919;48.792;9.202;2023-03-03T23:24:22;2.80;99.90
9760;DHT22;4919;48.792;9.202;2023-03-03T23:27:08;2.70;99.90
9760;DHT22;4919;48.792;9.202;2023-03-03T23:29:53;2.70;99.90
9760;DHT22;4919;48.792;9.202;2023-03-03T23:32:38;2.60;99.90
9760;DHT22;4919;48.792;9.202;2023-03-03T23:35:23;2.50;99.90
9760;DHT22;4919;48.792;9.202;2023-03-03T23:38:08;2.40;99.90
9760;DHT22;4919;48.792;9.202;2023-03-03T23:40:52;2.30;99.90
9760;DHT22;4919;48.792;9.202;2023-03-03T23:43:37;2.30;99.90
9760;DHT22;4919;48.792;9.202;2023-03-03T23:46:22;2.30;99.90
9760;DHT22;4919;48.792;9.202;2023-03-03T23:49:07;2.20;99.90
9760;DHT22;4919;48.792;9.202;2023-03-03T23:51:52;2.10;99.90
9760;DHT22;4919;48.792;9.202;2023-03-03T23:54:37;2.10;99.90
9760;DHT22;4919;48.792;9.202;2023-03-03T23:57:22;2.00;99.90
